Time;durP1;ratioP1;P1;durP2;ratioP2;P2;SDS_P1;SDS_P2;PMS_P1;PMS_P2;Temp;Humidity;BMP_temperature;BMP_pressure;BME280_temperature;BME280_humidity;BME280_pressure;Samples;Min_cycle;Max_cycle;Signal;HPM_P1;HPM_P2
2022/12/17 13:06:12;;;;;;;50.83;27.33;;;;;;;;;;5000922;28;20961;-75
2022/12/17 13:08:39;;;;;;;60.40;30.47;;;;;;;;;;5006302;28;20802;-75
2022/12/17 13:11:25;;;;;;;54.60;28.87;;;;;;;;;;5006325;28;20468;-75
2022/12/17 13:13:55;;;;;;;58.13;29.53;;;;;;;;;;5000558;28;20988;-75
2022/12/17 13:16:33;;;;;;;63.23;30.53;;;;;;;;;;4999885;28;20457;-75
2022/12/17 13:19:04;;;;;;;60.67;31.00;;;;;;;;;;5008043;28;20434;-77
2022/12/17 13:21:30;;;;;;;59.57;30.53;;;;;;;;;;4999911;28;20821;-74
2022/12/17 13:23:57;;;;;;;57.77;29.20;;;;;;;;;;5002646;28;20965;-78
2022/12/17 13:26:24;;;;;;;63.93;32.07;;;;;;;;;;4997271;28;22344;-75
2022/12/17 13:29:01;;;;;;;61.10;32.53;;;;;;;;;;4998101;28;20535;-76
2022/12/17 13:31:40;;;;;;;64.07;31.47;;;;;;;;;;5004627;28;20528;-80
2022/12/17 13:34:11;;;;;;;56.60;29.80;;;;;;;;;;5009427;28;20441;-77
2022/12/17 13:36:42;;;;;;;62.60;31.40;;;;;;;;;;5006045;28;20469;-76
2022/12/17 13:39:12;;;;;;;55.43;29.67;;;;;;;;;;5007670;28;20441;-75
2022/12/17 13:41:39;;;;;;;56.30;30.70;;;;;;;;;;5001928;28;20703;-76
2022/12/17 13:44:20;;;;;;;62.97;33.13;;;;;;;;;;5010437;28;20461;-77
2022/12/17 13:46:48;;;;;;;60.20;31.40;;;;;;;;;;5012380;28;20479;-78
2022/12/17 13:49:17;;;;;;;59.60;30.80;;;;;;;;;;5002113;28;21084;-77
2022/12/17 13:51:43;;;;;;;57.17;30.10;;;;;;;;;;4995237;28;20475;-78
2022/12/17 13:54:18;;;;;;;48.17;27.33;;;;;;;;;;5003790;28;20527;-77
2022/12/17 13:56:45;;;;;;;59.80;30.33;;;;;;;;;;5001596;28;20492;-78
2022/12/17 13:59:19;;;;;;;57.30;30.33;;;;;;;;;;4988158;28;20448;-78
2022/12/17 14:01:47;;;;;;;59.07;30.97;;;;;;;;;;5005808;28;20469;-76
2022/12/17 14:04:20;;;;;;;56.00;29.80;;;;;;;;;;5002335;28;20442;-76
2022/12/17 14:06:47;;;;;;;72.07;36.67;;;;;;;;;;5009949;28;20494;-74
2022/12/17 14:09:17;;;;;;;67.27;32.50;;;;;;;;;;5005072;28;20451;-78
2022/12/17 14:14:28;;;;;;;77.73;38.33;;;;;;;;;;5004184;28;20461;-75
2022/12/17 14:16:55;;;;;;;84.67;37.93;;;;;;;;;;4998256;28;20614;-75
2022/12/17 14:19:22;;;;;;;70.57;34.33;;;;;;;;;;4998229;28;20431;-75
2022/12/17 14:21:48;;;;;;;73.47;35.53;;;;;;;;;;4999858;28;20458;-74
2022/12/17 14:24:14;;;;;;;69.17;34.37;;;;;;;;;;4997828;28;20442;-74
2022/12/17 14:26:50;;;;;;;67.77;33.67;;;;;;;;;;5003314;28;20443;-74
2022/12/17 14:29:27;;;;;;;65.00;32.37;;;;;;;;;;4999890;28;20435;-75
2022/12/17 14:31:55;;;;;;;69.43;34.67;;;;;;;;;;4996118;28;20509;-75
2022/12/17 14:34:21;;;;;;;69.73;33.67;;;;;;;;;;5000060;28;21015;-75
2022/12/17 14:36:53;;;;;;;62.33;31.30;;;;;;;;;;4996655;28;20521;-75
2022/12/17 14:39:27;;;;;;;71.87;34.20;;;;;;;;;;4998252;28;20854;-75
2022/12/17 14:44:49;;;;;;;66.53;32.63;;;;;;;;;;5001096;28;20488;-74
2022/12/17 14:47:20;;;;;;;59.83;30.97;;;;;;;;;;4996492;28;20938;-75
2022/12/17 14:49:57;;;;;;;62.27;32.63;;;;;;;;;;5000531;28;20529;-75
2022/12/17 14:52:43;;;;;;;69.53;33.37;;;;;;;;;;5001500;28;20438;-76
2022/12/17 14:55:21;;;;;;;65.93;34.07;;;;;;;;;;4998327;28;20880;-75
2022/12/17 14:57:48;;;;;;;63.40;29.47;;;;;;;;;;4996618;28;20520;-74
2022/12/17 15:00:14;;;;;;;63.93;31.87;;;;;;;;;;4996602;28;20453;-75
2022/12/17 15:02:42;;;;;;;58.33;30.83;;;;;;;;;;4997699;28;20471;-75
2022/12/17 15:05:12;;;;;;;61.47;31.87;;;;;;;;;;4996849;28;20449;-75
2022/12/17 15:07:38;;;;;;;56.57;30.17;;;;;;;;;;5000508;28;20793;-75
2022/12/17 15:10:17;;;;;;;57.33;30.97;;;;;;;;;;4997365;28;20966;-75
2022/12/17 15:12:44;;;;;;;64.60;33.10;;;;;;;;;;4998348;28;20498;-74
2022/12/17 15:15:14;;;;;;;63.03;31.50;;;;;;;;;;4999413;28;20968;-75
2022/12/17 15:17:41;;;;;;;58.30;31.43;;;;;;;;;;4999197;28;20459;-75
2022/12/17 15:20:11;;;;;;;64.60;32.00;;;;;;;;;;5000028;28;20452;-75
2022/12/17 15:22:37;;;;;;;62.83;31.23;;;;;;;;;;4996895;28;20442;-76
2022/12/17 15:25:04;;;;;;;60.53;31.23;;;;;;;;;;4997946;28;20434;-75
2022/12/17 15:27:30;;;;;;;65.60;33.83;;;;;;;;;;4998745;28;20860;-75
2022/12/17 15:29:56;;;;;;;66.45;37.95;;;;;;;;;;5000380;28;20490;-75
2022/12/17 15:32:23;;;;;;;63.17;38.22;;;;;;;;;;4996583;28;20447;-75
2022/12/17 15:34:50;;;;;;;61.73;33.50;;;;;;;;;;4999142;28;20219;-75
2022/12/17 15:37:16;;;;;;;61.87;33.30;;;;;;;;;;5001858;28;20524;-75
2022/12/17 15:39:43;;;;;;;55.73;30.20;;;;;;;;;;5002132;28;21592;-74
2022/12/17 15:44:55;;;;;;;61.22;34.80;;;;;;;;;;4999730;28;20444;-75
2022/12/17 15:47:21;;;;;;;58.47;32.53;;;;;;;;;;5001080;28;20385;-76
2022/12/17 15:49:48;;;;;;;61.13;32.17;;;;;;;;;;5004940;28;20454;-75
2022/12/17 15:52:14;;;;;;;57.13;28.80;;;;;;;;;;5002707;28;20431;-75
2022/12/17 15:54:41;;;;;;;55.03;29.23;;;;;;;;;;5004433;28;20427;-76
2022/12/17 15:57:07;;;;;;;62.90;31.47;;;;;;;;;;5004558;28;20550;-75
2022/12/17 15:59:33;;;;;;;66.93;39.72;;;;;;;;;;5002296;28;20762;-76
2022/12/17 16:01:59;;;;;;;65.80;39.35;;;;;;;;;;5001674;28;20487;-76
2022/12/17 16:04:26;;;;;;;61.60;32.57;;;;;;;;;;4999347;28;20231;-76
2022/12/17 16:06:52;;;;;;;57.67;35.85;;;;;;;;;;4999306;28;20495;-76
2022/12/17 16:09:23;;;;;;;58.17;33.13;;;;;;;;;;5001688;28;20293;-76
2022/12/17 16:11:49;;;;;;;58.10;34.22;;;;;;;;;;4999945;28;20843;-74
2022/12/17 16:14:15;;;;;;;59.03;31.63;;;;;;;;;;5001501;28;20656;-76
2022/12/17 16:16:41;;;;;;;63.90;33.27;;;;;;;;;;4997606;28;20474;-76
2022/12/17 16:19:07;;;;;;;66.07;39.03;;;;;;;;;;4999120;28;20439;-76
2022/12/17 16:21:34;;;;;;;63.47;33.73;;;;;;;;;;5000869;28;20719;-76
2022/12/17 16:24:00;;;;;;;65.17;36.93;;;;;;;;;;4999191;28;20536;-74
2022/12/17 16:26:26;;;;;;;66.20;36.00;;;;;;;;;;5001027;28;20187;-76
2022/12/17 16:28:53;;;;;;;64.07;33.60;;;;;;;;;;5000231;28;20447;-76
2022/12/17 16:31:19;;;;;;;69.88;40.92;;;;;;;;;;5002233;28;20416;-76
2022/12/17 16:33:46;;;;;;;66.57;40.10;;;;;;;;;;5002475;28;20794;-76
2022/12/17 16:36:14;;;;;;;67.43;39.55;;;;;;;;;;5004540;28;20500;-75
2022/12/17 16:38:48;;;;;;;71.80;38.22;;;;;;;;;;5004853;28;20443;-76
2022/12/17 16:41:14;;;;;;;67.73;36.13;;;;;;;;;;5004116;28;20202;-76
2022/12/17 16:43:41;;;;;;;84.30;40.43;;;;;;;;;;4997874;28;20534;-74
2022/12/17 16:46:27;;;;;;;72.88;43.40;;;;;;;;;;5001185;28;20448;-76
2022/12/17 16:48:54;;;;;;;68.60;36.97;;;;;;;;;;5008015;28;20189;-78
2022/12/17 16:51:21;;;;;;;61.33;32.53;;;;;;;;;;5014153;28;20997;-80
2022/12/17 16:53:48;;;;;;;58.97;32.37;;;;;;;;;;5013438;28;20839;-77
2022/12/17 16:56:15;;;;;;;64.00;38.13;;;;;;;;;;5009123;28;20427;-78
2022/12/17 16:58:41;;;;;;;64.80;39.25;;;;;;;;;;5015296;28;20508;-77
2022/12/17 17:01:07;;;;;;;71.43;37.10;;;;;;;;;;4988102;28;20207;-76
2022/12/17 17:03:33;;;;;;;59.13;32.28;;;;;;;;;;5012264;28;21159;-77
2022/12/17 17:06:02;;;;;;;58.73;31.37;;;;;;;;;;5004136;28;20202;-76
2022/12/17 17:08:28;;;;;;;70.28;35.72;;;;;;;;;;4999198;28;20442;-78
2022/12/17 17:10:55;;;;;;;63.45;36.47;;;;;;;;;;5002950;28;20524;-78
2022/12/17 17:13:21;;;;;;;61.25;33.22;;;;;;;;;;5005579;28;20433;-77
2022/12/17 17:15:47;;;;;;;60.00;31.30;;;;;;;;;;5002827;28;20194;-78
2022/12/17 17:18:13;;;;;;;58.10;29.93;;;;;;;;;;5009115;28;20427;-78
2022/12/17 17:20:39;;;;;;;64.57;37.83;;;;;;;;;;5003389;28;20781;-79
2022/12/17 17:23:05;;;;;;;69.20;34.97;;;;;;;;;;5006853;28;20278;-78
2022/12/17 17:25:31;;;;;;;62.00;37.67;;;;;;;;;;5008221;28;20432;-78
2022/12/17 17:27:58;;;;;;;66.17;37.80;;;;;;;;;;4989782;28;20789;-78
2022/12/17 17:30:24;;;;;;;61.57;32.67;;;;;;;;;;5008714;28;20207;-77
2022/12/17 17:32:50;;;;;;;60.77;32.97;;;;;;;;;;5012051;28;20437;-78
2022/12/17 17:35:16;;;;;;;66.70;35.27;;;;;;;;;;5000127;28;20458;-77
2022/12/17 17:37:42;;;;;;;71.13;40.47;;;;;;;;;;5003808;28;20469;-79
2022/12/17 17:40:09;;;;;;;72.73;36.23;;;;;;;;;;5004182;28;20278;-77
2022/12/17 17:42:35;;;;;;;67.13;36.00;;;;;;;;;;5007545;28;20427;-79
2022/12/17 17:45:02;;;;;;;78.63;37.97;;;;;;;;;;5003415;28;20503;-79
2022/12/17 17:47:29;;;;;;;68.43;34.47;;;;;;;;;;5011796;28;20500;-79
2022/12/17 17:49:55;;;;;;;71.53;34.13;;;;;;;;;;5010746;28;20425;-78
2022/12/17 17:52:21;;;;;;;68.80;33.70;;;;;;;;;;5012817;28;20422;-78
2022/12/17 17:54:48;;;;;;;72.13;34.53;;;;;;;;;;5011412;28;20805;-78
2022/12/17 17:57:14;;;;;;;73.43;34.83;;;;;;;;;;5009816;28;20462;-79
2022/12/17 17:59:40;;;;;;;74.78;42.30;;;;;;;;;;5017905;28;20916;-79
2022/12/17 18:02:08;;;;;;;65.00;33.80;;;;;;;;;;4989242;28;20651;-79
2022/12/17 18:04:35;;;;;;;62.83;33.03;;;;;;;;;;5011932;28;20418;-79
2022/12/17 18:07:01;;;;;;;69.23;33.97;;;;;;;;;;5017275;28;20434;-79
2022/12/17 18:09:28;;;;;;;86.10;36.37;;;;;;;;;;5008216;28;20422;-79
2022/12/17 18:11:54;;;;;;;70.63;35.57;;;;;;;;;;5000965;28;20445;-78
2022/12/17 18:14:20;;;;;;;100.13;45.92;;;;;;;;;;4998122;28;20420;-79
2022/12/17 18:16:47;;;;;;;78.00;36.87;;;;;;;;;;5000707;28;20290;-79
2022/12/17 18:19:15;;;;;;;84.85;43.63;;;;;;;;;;5001233;28;20424;-79
2022/12/17 18:21:41;;;;;;;69.27;34.00;;;;;;;;;;4992610;28;20219;-77
2022/12/17 18:24:10;;;;;;;94.10;42.37;;;;;;;;;;5005396;28;20428;-79
2022/12/17 18:26:41;;;;;;;93.07;38.87;;;;;;;;;;5010320;28;20438;-78
2022/12/17 18:29:11;;;;;;;76.90;34.23;;;;;;;;;;5012366;28;20425;-78
2022/12/17 18:31:37;;;;;;;82.47;38.63;;;;;;;;;;5008800;28;20457;-78
2022/12/17 18:34:04;;;;;;;74.80;34.97;;;;;;;;;;4993162;28;20509;-78
2022/12/17 18:36:32;;;;;;;90.70;35.73;;;;;;;;;;5011033;28;20472;-78
2022/12/17 18:38:59;;;;;;;71.90;33.50;;;;;;;;;;5001441;28;20959;-78
2022/12/17 18:44:11;;;;;;;70.40;33.40;;;;;;;;;;4991479;28;20438;-79
2022/12/17 18:46:38;;;;;;;82.80;36.93;;;;;;;;;;4989222;28;20450;-79
2022/12/17 18:49:06;;;;;;;91.23;38.93;;;;;;;;;;5000320;28;20839;-79
2022/12/17 18:51:33;;;;;;;90.93;38.30;;;;;;;;;;5001045;28;20431;-78
2022/12/17 18:54:00;;;;;;;82.93;37.93;;;;;;;;;;4982490;28;20199;-79
2022/12/17 18:56:27;;;;;;;83.57;38.07;;;;;;;;;;4983629;28;20474;-79
2022/12/17 18:58:54;;;;;;;75.13;41.25;;;;;;;;;;5030322;28;20421;-79
2022/12/17 19:01:22;;;;;;;103.40;41.77;;;;;;;;;;5013813;28;20203;-79
2022/12/17 19:03:48;;;;;;;81.70;43.15;;;;;;;;;;5017164;28;20459;-78
2022/12/17 19:06:14;;;;;;;72.47;36.07;;;;;;;;;;5013732;28;20199;-77
2022/12/17 19:08:41;;;;;;;70.07;36.77;;;;;;;;;;5010510;28;20926;-77
2022/12/17 19:11:15;;;;;;;84.60;40.27;;;;;;;;;;5018641;28;20471;-77
2022/12/17 19:13:41;;;;;;;89.47;38.37;;;;;;;;;;5010062;28;20522;-77
2022/12/17 19:16:09;;;;;;;94.77;41.63;;;;;;;;;;5000519;28;20481;-77
2022/12/17 19:18:35;;;;;;;80.70;36.70;;;;;;;;;;4999267;28;20426;-78
2022/12/17 19:21:02;;;;;;;116.10;44.03;;;;;;;;;;5009267;28;21020;-76
2022/12/17 19:23:28;;;;;;;101.70;42.43;;;;;;;;;;5006854;28;20862;-77
2022/12/17 19:25:56;;;;;;;125.70;40.87;;;;;;;;;;5007647;28;20592;-77
2022/12/17 19:28:22;;;;;;;100.43;41.47;;;;;;;;;;5001989;28;20438;-77
2022/12/17 19:30:55;;;;;;;88.17;36.87;;;;;;;;;;5011223;28;20215;-81
2022/12/17 19:33:21;;;;;;;88.00;40.50;;;;;;;;;;5017321;28;20512;-78
2022/12/17 19:35:47;;;;;;;75.80;36.83;;;;;;;;;;5000641;28;20818;-78
2022/12/17 19:38:13;;;;;;;72.63;34.07;;;;;;;;;;5006640;28;20880;-77
2022/12/17 19:40:39;;;;;;;92.70;34.90;;;;;;;;;;5008425;28;20457;-74
2022/12/17 19:43:05;;;;;;;72.87;33.20;;;;;;;;;;5013804;28;20434;-74
2022/12/17 19:45:32;;;;;;;74.88;34.45;;;;;;;;;;5007217;28;20422;-75
2022/12/17 19:47:58;;;;;;;67.67;33.13;;;;;;;;;;5003762;28;20191;-76
2022/12/17 19:50:24;;;;;;;76.23;33.43;;;;;;;;;;5024212;28;20462;-75
2022/12/17 19:52:50;;;;;;;68.63;33.47;;;;;;;;;;4996119;28;20519;-76
2022/12/17 19:55:17;;;;;;;84.23;35.83;;;;;;;;;;5008479;28;20513;-76
2022/12/17 19:57:43;;;;;;;82.27;36.07;;;;;;;;;;5006433;28;20470;-74
2022/12/17 20:00:09;;;;;;;75.13;34.37;;;;;;;;;;5008443;28;20461;-74
2022/12/17 20:02:41;;;;;;;93.15;41.70;;;;;;;;;;5017293;28;20429;-74
2022/12/17 20:05:08;;;;;;;73.17;33.20;;;;;;;;;;5020824;28;20210;-76
2022/12/17 20:07:34;;;;;;;73.60;33.20;;;;;;;;;;5017512;28;20464;-81
2022/12/17 20:10:00;;;;;;;90.57;35.77;;;;;;;;;;5012881;28;20477;-75
2022/12/17 20:12:27;;;;;;;88.15;40.75;;;;;;;;;;5013604;28;20470;-77
2022/12/17 20:14:53;;;;;;;82.93;35.27;;;;;;;;;;5017038;28;20196;-76
2022/12/17 20:17:19;;;;;;;84.63;34.63;;;;;;;;;;5016809;28;20473;-81
2022/12/17 20:19:46;;;;;;;78.87;37.07;;;;;;;;;;5002047;28;20541;-75
2022/12/17 20:22:12;;;;;;;80.57;40.70;;;;;;;;;;5015898;28;20503;-76
2022/12/17 20:24:38;;;;;;;97.73;40.50;;;;;;;;;;5014519;28;20195;-78
2022/12/17 20:27:05;;;;;;;72.73;33.27;;;;;;;;;;5017086;28;20902;-77
2022/12/17 20:29:31;;;;;;;69.50;32.93;;;;;;;;;;5013288;28;20453;-78
2022/12/17 20:32:00;;;;;;;68.17;34.43;;;;;;;;;;5015901;28;20476;-78
2022/12/17 20:34:26;;;;;;;71.70;34.83;;;;;;;;;;5017220;28;20446;-76
2022/12/17 20:36:53;;;;;;;71.60;34.17;;;;;;;;;;5019061;28;20477;-77
2022/12/17 20:39:19;;;;;;;79.70;35.97;;;;;;;;;;5012724;28;20503;-78
2022/12/17 20:41:45;;;;;;;80.83;36.27;;;;;;;;;;5013754;28;20500;-77
2022/12/17 20:44:13;;;;;;;77.20;34.53;;;;;;;;;;5019480;28;20433;-76
2022/12/17 20:46:40;;;;;;;85.80;34.43;;;;;;;;;;5024780;28;20956;-77
2022/12/17 20:49:06;;;;;;;109.90;36.30;;;;;;;;;;5013769;28;20434;-77
2022/12/17 20:51:33;;;;;;;111.93;34.93;;;;;;;;;;4992431;28;20510;-76
2022/12/17 20:54:00;;;;;;;126.57;41.53;;;;;;;;;;5012802;28;20422;-77
2022/12/17 20:56:27;;;;;;;84.93;36.60;;;;;;;;;;5007661;28;20467;-78
2022/12/17 20:58:54;;;;;;;77.97;32.73;;;;;;;;;;5007890;28;20430;-77
2022/12/17 21:01:22;;;;;;;96.37;35.90;;;;;;;;;;5013996;28;20836;-78
2022/12/17 21:03:48;;;;;;;82.37;34.23;;;;;;;;;;5011926;28;20437;-77
2022/12/17 21:06:16;;;;;;;71.17;32.00;;;;;;;;;;4995795;28;20461;-77
2022/12/17 21:08:42;;;;;;;108.45;42.67;;;;;;;;;;5004902;28;20426;-78
2022/12/17 21:11:09;;;;;;;85.03;34.97;;;;;;;;;;5010031;28;20195;-77
2022/12/17 21:13:36;;;;;;;78.97;34.47;;;;;;;;;;5005664;28;20496;-78
2022/12/17 21:16:25;;;;;;;78.50;33.13;;;;;;;;;;5001279;28;20911;-77
2022/12/17 21:18:51;;;;;;;74.27;32.70;;;;;;;;;;4995858;28;20442;-79
2022/12/17 21:21:19;;;;;;;83.72;40.15;;;;;;;;;;4984578;28;20430;-78
2022/12/17 21:23:46;;;;;;;74.23;35.30;;;;;;;;;;5008239;28;20243;-78
2022/12/17 21:26:13;;;;;;;86.75;40.47;;;;;;;;;;5007159;28;20502;-78
2022/12/17 21:28:40;;;;;;;77.33;35.23;;;;;;;;;;5005045;28;20184;-79
2022/12/17 21:31:27;;;;;;;71.43;31.07;;;;;;;;;;5009891;28;20488;-78
2022/12/17 21:33:55;;;;;;;104.45;41.83;;;;;;;;;;5004124;28;21073;-79
2022/12/17 21:36:22;;;;;;;86.27;35.17;;;;;;;;;;5009100;28;20226;-78
2022/12/17 21:38:49;;;;;;;86.23;34.17;;;;;;;;;;5005899;28;20453;-77
2022/12/17 21:41:17;;;;;;;88.07;32.70;;;;;;;;;;4999460;28;20459;-77
2022/12/17 21:43:43;;;;;;;77.27;31.63;;;;;;;;;;5000631;28;20509;-77
2022/12/17 21:46:10;;;;;;;71.40;30.00;;;;;;;;;;4996969;28;20431;-75
2022/12/17 21:48:37;;;;;;;95.43;32.17;;;;;;;;;;5007202;28;20442;-76
2022/12/17 21:51:04;;;;;;;70.03;31.30;;;;;;;;;;4993411;28;20557;-77
2022/12/17 21:53:31;;;;;;;82.33;33.20;;;;;;;;;;5004015;28;20436;-77
2022/12/17 21:56:07;;;;;;;75.85;35.72;;;;;;;;;;4996047;28;20431;-77
2022/12/17 21:58:34;;;;;;;78.37;34.03;;;;;;;;;;5006362;28;20183;-76
2022/12/17 22:01:10;;;;;;;71.67;32.80;;;;;;;;;;5004381;28;20485;-77
2022/12/17 22:03:37;;;;;;;76.73;32.20;;;;;;;;;;4999391;28;20441;-77
2022/12/17 22:06:06;;;;;;;78.77;33.27;;;;;;;;;;5007680;28;20999;-77
2022/12/17 22:08:33;;;;;;;87.63;33.33;;;;;;;;;;5007503;28;20417;-76
2022/12/17 22:11:01;;;;;;;72.70;33.23;;;;;;;;;;5001060;28;20470;-76
2022/12/17 22:16:13;;;;;;;73.43;30.77;;;;;;;;;;5005722;28;20513;-76
2022/12/17 22:18:39;;;;;;;69.33;30.97;;;;;;;;;;4999217;28;20470;-77
2022/12/17 22:21:05;;;;;;;82.43;39.30;;;;;;;;;;4997224;28;20427;-77
2022/12/17 22:23:32;;;;;;;85.83;36.50;;;;;;;;;;4996955;28;20171;-77
2022/12/17 22:25:58;;;;;;;85.33;34.50;;;;;;;;;;4999533;28;20438;-76
2022/12/17 22:28:24;;;;;;;99.40;36.13;;;;;;;;;;5000624;28;20997;-76
2022/12/17 22:33:35;;;;;;;73.83;31.43;;;;;;;;;;5013736;28;20431;-77
2022/12/17 22:36:01;;;;;;;75.03;31.60;;;;;;;;;;5002854;28;20497;-77
2022/12/17 22:38:28;;;;;;;81.80;34.77;;;;;;;;;;4998732;28;20957;-77
2022/12/17 22:40:54;;;;;;;77.37;31.27;;;;;;;;;;4982624;28;20471;-77
2022/12/17 22:43:29;;;;;;;74.33;32.27;;;;;;;;;;4997004;28;20536;-76
2022/12/17 22:46:03;;;;;;;85.13;35.80;;;;;;;;;;5002221;28;21269;-77
2022/12/17 22:48:30;;;;;;;70.37;31.97;;;;;;;;;;5005858;28;20414;-76
2022/12/17 22:50:56;;;;;;;85.93;42.13;;;;;;;;;;5010146;28;20903;-77
2022/12/17 22:53:23;;;;;;;67.03;33.37;;;;;;;;;;5005507;28;20266;-76
2022/12/17 22:55:50;;;;;;;71.17;32.10;;;;;;;;;;5001887;28;20446;-76
2022/12/17 22:58:17;;;;;;;71.77;32.20;;;;;;;;;;4997335;28;20444;-77
2022/12/17 23:00:43;;;;;;;74.10;37.15;;;;;;;;;;5000826;28;21088;-77
2022/12/17 23:03:10;;;;;;;76.03;34.40;;;;;;;;;;5003313;28;20175;-77
2022/12/17 23:05:36;;;;;;;64.80;29.57;;;;;;;;;;5002498;28;20464;-77
2022/12/17 23:08:02;;;;;;;75.23;33.10;;;;;;;;;;5001930;28;21136;-76
2022/12/17 23:10:28;;;;;;;67.83;30.90;;;;;;;;;;5004958;28;20476;-75
2022/12/17 23:12:55;;;;;;;69.90;32.77;;;;;;;;;;5000872;28;20808;-77
2022/12/17 23:15:21;;;;;;;71.97;32.27;;;;;;;;;;5000440;28;20441;-77
2022/12/17 23:17:47;;;;;;;62.53;30.10;;;;;;;;;;4997951;28;20525;-77
2022/12/17 23:20:14;;;;;;;61.77;28.87;;;;;;;;;;5000936;28;21008;-77
2022/12/17 23:22:40;;;;;;;64.43;28.97;;;;;;;;;;5007872;28;20444;-76
2022/12/17 23:25:06;;;;;;;70.20;31.87;;;;;;;;;;5002980;28;20453;-74
2022/12/17 23:27:33;;;;;;;71.53;30.10;;;;;;;;;;4999539;28;20446;-75
2022/12/17 23:29:59;;;;;;;78.77;33.83;;;;;;;;;;5002910;28;20968;-77
2022/12/17 23:32:25;;;;;;;71.67;30.83;;;;;;;;;;5000888;28;20446;-77
2022/12/17 23:34:51;;;;;;;71.27;32.20;;;;;;;;;;5002206;28;20443;-77
2022/12/17 23:37:17;;;;;;;68.37;30.00;;;;;;;;;;5001333;28;20847;-77
2022/12/17 23:39:44;;;;;;;71.10;29.67;;;;;;;;;;5002950;28;20447;-77
2022/12/17 23:42:11;;;;;;;60.90;27.77;;;;;;;;;;4997728;28;20449;-76
2022/12/17 23:44:37;;;;;;;66.03;29.03;;;;;;;;;;4998251;28;20529;-77
2022/12/17 23:47:03;;;;;;;63.13;27.97;;;;;;;;;;5001657;28;20791;-76
2022/12/17 23:49:30;;;;;;;67.83;30.00;;;;;;;;;;5009279;28;21044;-76
2022/12/17 23:51:56;;;;;;;62.10;27.40;;;;;;;;;;5012408;28;20461;-76
2022/12/17 23:54:22;;;;;;;64.67;29.33;;;;;;;;;;5015457;28;20479;-77
2022/12/17 23:56:48;;;;;;;60.20;28.10;;;;;;;;;;5027278;28;20473;-79
2022/12/17 23:59:14;;;;;;;73.33;29.83;;;;;;;;;;4983075;28;20445;-78
